sensor_id;sensor_type;location;lat;lon;timestamp;temperature;humidity
46029;DHT22;31763;48.180;7.904;2022-12-18T00:02:12;-8.00;99.90
46029;DHT22;31763;48.180;7.904;2022-12-18T00:04:38;-8.50;99.90
46029;DHT22;31763;48.180;7.904;2022-12-18T00:07:05;-8.80;99.90
46029;DHT22;31763;48.180;7.904;2022-12-18T00:09:32;-8.70;99.90
46029;DHT22;31763;48.180;7.904;2022-12-18T00:12:06;-8.60;99.90
46029;DHT22;31763;48.180;7.904;2022-12-18T00:14:41;-8.80;99.90
46029;DHT22;31763;48.180;7.904;2022-12-18T00:17:08;-8.70;99.90
46029;DHT22;31763;48.180;7.904;2022-12-18T00:19:35;-8.60;99.90
46029;DHT22;31763;48.180;7.904;2022-12-18T00:22:02;-8.40;99.90
46029;DHT22;31763;48.180;7.904;2022-12-18T00:24:28;-8.30;99.90
46029;DHT22;31763;48.180;7.904;2022-12-18T00:26:55;-8.50;99.90
46029;DHT22;31763;48.180;7.904;2022-12-18T00:29:22;-8.50;99.90
46029;DHT22;31763;48.180;7.904;2022-12-18T00:31:49;-8.50;99.90
46029;DHT22;31763;48.180;7.904;2022-12-18T00:34:15;-8.80;99.90
46029;DHT22;31763;48.180;7.904;2022-12-18T00:36:42;-9.20;99.90
46029;DHT22;31763;48.180;7.904;2022-12-18T00:39:10;-9.40;99.90
46029;DHT22;31763;48.180;7.904;2022-12-18T00:41:37;-9.80;99.90
46029;DHT22;31763;48.180;7.904;2022-12-18T00:44:22;-9.70;99.90
46029;DHT22;31763;48.180;7.904;2022-12-18T00:46:49;-9.60;99.90
46029;DHT22;31763;48.180;7.904;2022-12-18T00:49:17;-9.80;99.90
46029;DHT22;31763;48.180;7.904;2022-12-18T00:51:45;-9.50;99.90
46029;DHT22;31763;48.180;7.904;2022-12-18T00:54:12;-8.90;99.90
46029;DHT22;31763;48.180;7.904;2022-12-18T00:56:39;-9.20;99.90
46029;DHT22;31763;48.180;7.904;2022-12-18T00:59:14;-9.10;99.90
46029;DHT22;31763;48.180;7.904;2022-12-18T01:01:42;-9.40;99.90
46029;DHT22;31763;48.180;7.904;2022-12-18T01:04:09;-9.50;99.90
46029;DHT22;31763;48.180;7.904;2022-12-18T01:06:35;-9.70;99.90
46029;DHT22;31763;48.180;7.904;2022-12-18T01:09:02;-9.80;99.90
46029;DHT22;31763;48.180;7.904;2022-12-18T01:11:30;-9.90;99.90
46029;DHT22;31763;48.180;7.904;2022-12-18T01:13:56;-9.90;99.90
46029;DHT22;31763;48.180;7.904;2022-12-18T01:16:23;-9.80;99.90
46029;DHT22;31763;48.180;7.904;2022-12-18T01:18:53;-9.70;99.90
46029;DHT22;31763;48.180;7.904;2022-12-18T01:21:21;-9.60;99.90
46029;DHT22;31763;48.180;7.904;2022-12-18T01:23:52;-9.70;99.90
46029;DHT22;31763;48.180;7.904;2022-12-18T01:26:20;-9.70;99.90
46029;DHT22;31763;48.180;7.904;2022-12-18T01:28:46;-9.90;99.90
46029;DHT22;31763;48.180;7.904;2022-12-18T01:33:42;-9.90;99.90
46029;DHT22;31763;48.180;7.904;2022-12-18T01:36:17;-9.40;99.90
46029;DHT22;31763;48.180;7.904;2022-12-18T01:38:46;-9.00;99.90
46029;DHT22;31763;48.180;7.904;2022-12-18T01:41:13;-9.30;99.90
46029;DHT22;31763;48.180;7.904;2022-12-18T01:43:45;-9.30;99.90
46029;DHT22;31763;48.180;7.904;2022-12-18T01:46:18;-9.00;99.90
46029;DHT22;31763;48.180;7.904;2022-12-18T01:48:47;-8.60;99.90
46029;DHT22;31763;48.180;7.904;2022-12-18T01:51:15;-8.90;99.90
46029;DHT22;31763;48.180;7.904;2022-12-18T01:53:43;-9.30;99.90
46029;DHT22;31763;48.180;7.904;2022-12-18T01:56:12;-9.40;99.90
46029;DHT22;31763;48.180;7.904;2022-12-18T02:01:10;-10.00;99.90
46029;DHT22;31763;48.180;7.904;2022-12-18T02:03:39;-10.00;99.90
46029;DHT22;31763;48.180;7.904;2022-12-18T02:11:43;-9.80;99.90
46029;DHT22;31763;48.180;7.904;2022-12-18T02:14:21;-10.10;99.90
46029;DHT22;31763;48.180;7.904;2022-12-18T02:17:01;-10.30;99.90
46029;DHT22;31763;48.180;7.904;2022-12-18T02:28:41;-10.30;99.90
46029;DHT22;31763;48.180;7.904;2022-12-18T02:31:11;-10.20;99.90
46029;DHT22;31763;48.180;7.904;2022-12-18T02:33:42;-10.00;99.90
46029;DHT22;31763;48.180;7.904;2022-12-18T02:36:10;-10.20;99.90
46029;DHT22;31763;48.180;7.904;2022-12-18T02:38:37;-10.30;99.90
46029;DHT22;31763;48.180;7.904;2022-12-18T02:41:04;-10.40;99.90
46029;DHT22;31763;48.180;7.904;2022-12-18T02:43:32;-10.40;99.90
46029;DHT22;31763;48.180;7.904;2022-12-18T02:45:59;-10.20;99.90
46029;DHT22;31763;48.180;7.904;2022-12-18T02:48:33;-10.20;99.90
46029;DHT22;31763;48.180;7.904;2022-12-18T02:51:07;-9.90;99.90
46029;DHT22;31763;48.180;7.904;2022-12-18T02:53:45;-10.00;99.90
46029;DHT22;31763;48.180;7.904;2022-12-18T02:56:19;-10.30;99.90
46029;DHT22;31763;48.180;7.904;2022-12-18T02:58:58;-10.40;99.90
46029;DHT22;31763;48.180;7.904;2022-12-18T03:04:02;-10.20;99.90
46029;DHT22;31763;48.180;7.904;2022-12-18T03:06:37;-10.30;99.90
46029;DHT22;31763;48.180;7.904;2022-12-18T03:09:19;-10.30;99.90
46029;DHT22;31763;48.180;7.904;2022-12-18T03:12:01;-9.80;99.90
46029;DHT22;31763;48.180;7.904;2022-12-18T03:15:03;-9.70;99.90
46029;DHT22;31763;48.180;7.904;2022-12-18T03:20:46;-9.40;99.90
46029;DHT22;31763;48.180;7.904;2022-12-18T03:23:25;-9.60;99.90
46029;DHT22;31763;48.180;7.904;2022-12-18T03:25:56;-9.60;99.90
46029;DHT22;31763;48.180;7.904;2022-12-18T03:28:31;-9.50;99.90
46029;DHT22;31763;48.180;7.904;2022-12-18T03:31:00;-9.50;99.90
46029;DHT22;31763;48.180;7.904;2022-12-18T03:33:29;-9.40;99.90
46029;DHT22;31763;48.180;7.904;2022-12-18T03:36:01;-9.30;99.90
46029;DHT22;31763;48.180;7.904;2022-12-18T03:38:28;-9.50;99.90
46029;DHT22;31763;48.180;7.904;2022-12-18T03:41:10;-9.50;99.90
46029;DHT22;31763;48.180;7.904;2022-12-18T03:44:01;-9.50;99.90
46029;DHT22;31763;48.180;7.904;2022-12-18T03:46:43;-9.50;99.90
46029;DHT22;31763;48.180;7.904;2022-12-18T03:49:39;-9.60;99.90
46029;DHT22;31763;48.180;7.904;2022-12-18T03:55:22;-9.70;99.90
46029;DHT22;31763;48.180;7.904;2022-12-18T03:57:50;-9.50;99.90
46029;DHT22;31763;48.180;7.904;2022-12-18T04:00:18;-9.80;99.90
46029;DHT22;31763;48.180;7.904;2022-12-18T04:02:47;-9.60;99.90
46029;DHT22;31763;48.180;7.904;2022-12-18T04:05:17;-9.80;99.90
46029;DHT22;31763;48.180;7.904;2022-12-18T04:07:46;-10.00;99.90
46029;DHT22;31763;48.180;7.904;2022-12-18T04:10:14;-9.80;99.90
46029;DHT22;31763;48.180;7.904;2022-12-18T04:12:42;-9.80;99.90
46029;DHT22;31763;48.180;7.904;2022-12-18T04:15:09;-9.60;99.90
46029;DHT22;31763;48.180;7.904;2022-12-18T04:17:37;-9.50;99.90
46029;DHT22;31763;48.180;7.904;2022-12-18T04:20:06;-9.60;99.90
46029;DHT22;31763;48.180;7.904;2022-12-18T04:22:33;-9.70;99.90
46029;DHT22;31763;48.180;7.904;2022-12-18T04:24:59;-9.80;99.90
46029;DHT22;31763;48.180;7.904;2022-12-18T04:27:26;-9.70;99.90
46029;DHT22;31763;48.180;7.904;2022-12-18T04:29:53;-9.60;99.90
46029;DHT22;31763;48.180;7.904;2022-12-18T04:32:19;-9.30;99.90
46029;DHT22;31763;48.180;7.904;2022-12-18T04:34:46;-9.40;99.90
46029;DHT22;31763;48.180;7.904;2022-12-18T04:37:13;-9.40;99.90
46029;DHT22;31763;48.180;7.904;2022-12-18T04:39:40;-9.40;99.90
46029;DHT22;31763;48.180;7.904;2022-12-18T04:42:06;-9.40;99.90
46029;DHT22;31763;48.180;7.904;2022-12-18T04:44:33;-9.30;99.90
46029;DHT22;31763;48.180;7.904;2022-12-18T04:47:00;-9.20;99.90
46029;DHT22;31763;48.180;7.904;2022-12-18T04:49:27;-9.10;99.90
46029;DHT22;31763;48.180;7.904;2022-12-18T04:51:56;-9.10;99.90
46029;DHT22;31763;48.180;7.904;2022-12-18T04:54:26;-9.30;99.90
46029;DHT22;31763;48.180;7.904;2022-12-18T04:57:02;-9.40;99.90
46029;DHT22;31763;48.180;7.904;2022-12-18T04:59:35;-9.20;99.90
46029;DHT22;31763;48.180;7.904;2022-12-18T05:02:04;-9.40;99.90
46029;DHT22;31763;48.180;7.904;2022-12-18T05:04:39;-9.20;99.90
46029;DHT22;31763;48.180;7.904;2022-12-18T05:07:10;-9.00;99.90
46029;DHT22;31763;48.180;7.904;2022-12-18T05:09:41;-8.90;99.90
46029;DHT22;31763;48.180;7.904;2022-12-18T05:12:09;-8.80;99.90
46029;DHT22;31763;48.180;7.904;2022-12-18T05:14:39;-8.70;99.90
46029;DHT22;31763;48.180;7.904;2022-12-18T05:17:07;-8.90;99.90
46029;DHT22;31763;48.180;7.904;2022-12-18T05:19:34;-9.10;99.90
46029;DHT22;31763;48.180;7.904;2022-12-18T05:22:01;-9.20;99.90
46029;DHT22;31763;48.180;7.904;2022-12-18T05:24:27;-8.90;99.90
46029;DHT22;31763;48.180;7.904;2022-12-18T05:26:54;-8.90;99.90
46029;DHT22;31763;48.180;7.904;2022-12-18T05:29:21;-9.10;99.90
46029;DHT22;31763;48.180;7.904;2022-12-18T05:31:47;-9.20;99.90
46029;DHT22;31763;48.180;7.904;2022-12-18T05:34:14;-9.20;99.90
46029;DHT22;31763;48.180;7.904;2022-12-18T05:36:41;-8.90;99.90
46029;DHT22;31763;48.180;7.904;2022-12-18T05:39:08;-8.70;99.90
46029;DHT22;31763;48.180;7.904;2022-12-18T05:41:34;-8.30;99.90
46029;DHT22;31763;48.180;7.904;2022-12-18T05:44:01;-8.20;99.90
46029;DHT22;31763;48.180;7.904;2022-12-18T05:46:28;-8.20;99.90
46029;DHT22;31763;48.180;7.904;2022-12-18T05:48:58;-8.10;99.90
46029;DHT22;31763;48.180;7.904;2022-12-18T05:51:26;-8.00;99.90
46029;DHT22;31763;48.180;7.904;2022-12-18T05:53:52;-8.10;99.90
46029;DHT22;31763;48.180;7.904;2022-12-18T05:56:22;-8.00;99.90
46029;DHT22;31763;48.180;7.904;2022-12-18T05:58:52;-8.00;99.90
46029;DHT22;31763;48.180;7.904;2022-12-18T06:01:21;-8.70;99.90
46029;DHT22;31763;48.180;7.904;2022-12-18T06:03:50;-8.80;99.90
46029;DHT22;31763;48.180;7.904;2022-12-18T06:06:18;-8.70;99.90
46029;DHT22;31763;48.180;7.904;2022-12-18T06:08:46;-8.50;99.90
46029;DHT22;31763;48.180;7.904;2022-12-18T06:11:15;-8.30;99.90
46029;DHT22;31763;48.180;7.904;2022-12-18T06:13:44;-8.20;99.90
46029;DHT22;31763;48.180;7.904;2022-12-18T06:16:10;-8.10;99.90
46029;DHT22;31763;48.180;7.904;2022-12-18T06:18:37;-8.20;99.90
46029;DHT22;31763;48.180;7.904;2022-12-18T06:21:04;-8.30;99.90
46029;DHT22;31763;48.180;7.904;2022-12-18T06:23:31;-8.20;99.90
46029;DHT22;31763;48.180;7.904;2022-12-18T06:25:58;-8.10;99.90
46029;DHT22;31763;48.180;7.904;2022-12-18T06:28:25;-8.10;99.90
46029;DHT22;31763;48.180;7.904;2022-12-18T06:30:51;-8.10;99.90
46029;DHT22;31763;48.180;7.904;2022-12-18T06:33:19;-7.90;99.90
46029;DHT22;31763;48.180;7.904;2022-12-18T06:35:46;-7.90;99.90
46029;DHT22;31763;48.180;7.904;2022-12-18T06:38:12;-8.00;99.90
46029;DHT22;31763;48.180;7.904;2022-12-18T06:40:39;-7.90;99.90
46029;DHT22;31763;48.180;7.904;2022-12-18T06:43:06;-8.00;99.90
46029;DHT22;31763;48.180;7.904;2022-12-18T06:45:32;-8.00;99.90
46029;DHT22;31763;48.180;7.904;2022-12-18T06:47:59;-8.10;99.90
46029;DHT22;31763;48.180;7.904;2022-12-18T06:50:26;-8.20;99.90
46029;DHT22;31763;48.180;7.904;2022-12-18T06:52:53;-8.10;99.90
46029;DHT22;31763;48.180;7.904;2022-12-18T06:55:19;-8.20;99.90
46029;DHT22;31763;48.180;7.904;2022-12-18T06:57:46;-8.00;99.90
46029;DHT22;31763;48.180;7.904;2022-12-18T07:00:13;-8.00;99.90
46029;DHT22;31763;48.180;7.904;2022-12-18T07:02:40;-8.10;99.90
46029;DHT22;31763;48.180;7.904;2022-12-18T07:05:07;-8.10;99.90
46029;DHT22;31763;48.180;7.904;2022-12-18T07:07:36;-8.10;99.90
46029;DHT22;31763;48.180;7.904;2022-12-18T07:10:03;-8.00;99.90
46029;DHT22;31763;48.180;7.904;2022-12-18T07:12:30;-8.20;99.90
46029;DHT22;31763;48.180;7.904;2022-12-18T07:14:57;-8.10;99.90
46029;DHT22;31763;48.180;7.904;2022-12-18T07:17:23;-8.10;99.90
46029;DHT22;31763;48.180;7.904;2022-12-18T07:19:50;-7.80;99.90
46029;DHT22;31763;48.180;7.904;2022-12-18T07:22:17;-7.50;99.90
46029;DHT22;31763;48.180;7.904;2022-12-18T07:24:44;-7.60;99.90
46029;DHT22;31763;48.180;7.904;2022-12-18T07:27:10;-7.80;99.90
46029;DHT22;31763;48.180;7.904;2022-12-18T07:29:37;-7.80;99.90
46029;DHT22;31763;48.180;7.904;2022-12-18T07:32:04;-7.90;99.90
46029;DHT22;31763;48.180;7.904;2022-12-18T07:34:31;-7.80;99.90
46029;DHT22;31763;48.180;7.904;2022-12-18T07:36:58;-7.50;99.90
46029;DHT22;31763;48.180;7.904;2022-12-18T07:39:25;-7.40;99.90
46029;DHT22;31763;48.180;7.904;2022-12-18T07:41:51;-7.30;99.90
46029;DHT22;31763;48.180;7.904;2022-12-18T07:44:37;-7.40;99.90
46029;DHT22;31763;48.180;7.904;2022-12-18T07:47:04;-7.40;99.90
46029;DHT22;31763;48.180;7.904;2022-12-18T07:49:37;-7.60;99.90
46029;DHT22;31763;48.180;7.904;2022-12-18T07:52:04;-7.70;99.90
46029;DHT22;31763;48.180;7.904;2022-12-18T07:54:30;-8.00;99.90
46029;DHT22;31763;48.180;7.904;2022-12-18T07:56:57;-7.90;99.90
46029;DHT22;31763;48.180;7.904;2022-12-18T07:59:24;-7.80;99.90
46029;DHT22;31763;48.180;7.904;2022-12-18T08:01:50;-7.50;99.90
46029;DHT22;31763;48.180;7.904;2022-12-18T08:04:17;-7.90;99.90
46029;DHT22;31763;48.180;7.904;2022-12-18T08:06:44;-8.40;99.90
46029;DHT22;31763;48.180;7.904;2022-12-18T08:09:13;-8.20;99.90
46029;DHT22;31763;48.180;7.904;2022-12-18T08:11:40;-8.00;99.90
46029;DHT22;31763;48.180;7.904;2022-12-18T08:14:07;-8.30;99.90
46029;DHT22;31763;48.180;7.904;2022-12-18T08:16:34;-8.10;99.90
46029;DHT22;31763;48.180;7.904;2022-12-18T08:19:00;-8.00;99.90
46029;DHT22;31763;48.180;7.904;2022-12-18T08:21:28;-8.00;99.90
46029;DHT22;31763;48.180;7.904;2022-12-18T08:23:56;-8.00;99.90
46029;DHT22;31763;48.180;7.904;2022-12-18T08:26:25;-8.20;99.90
46029;DHT22;31763;48.180;7.904;2022-12-18T08:28:57;-8.40;99.90
46029;DHT22;31763;48.180;7.904;2022-12-18T08:31:25;-8.60;99.90
46029;DHT22;31763;48.180;7.904;2022-12-18T08:33:54;-8.50;99.90
46029;DHT22;31763;48.180;7.904;2022-12-18T08:36:22;-8.30;99.90
46029;DHT22;31763;48.180;7.904;2022-12-18T08:38:50;-8.10;99.90
46029;DHT22;31763;48.180;7.904;2022-12-18T08:41:18;-8.10;99.90
46029;DHT22;31763;48.180;7.904;2022-12-18T08:43:45;-8.20;99.90
46029;DHT22;31763;48.180;7.904;2022-12-18T08:46:32;-8.20;99.90
46029;DHT22;31763;48.180;7.904;2022-12-18T08:49:01;-7.80;99.90
46029;DHT22;31763;48.180;7.904;2022-12-18T08:51:29;-7.40;99.90
46029;DHT22;31763;48.180;7.904;2022-12-18T08:53:56;-7.50;99.90
46029;DHT22;31763;48.180;7.904;2022-12-18T08:56:22;-7.40;99.90
46029;DHT22;31763;48.180;7.904;2022-12-18T08:58:53;-7.50;99.90
46029;DHT22;31763;48.180;7.904;2022-12-18T09:01:20;-7.80;99.90
46029;DHT22;31763;48.180;7.904;2022-12-18T09:03:48;-7.80;99.90
46029;DHT22;31763;48.180;7.904;2022-12-18T09:06:16;-7.70;99.90
46029;DHT22;31763;48.180;7.904;2022-12-18T09:08:44;-7.60;99.90
46029;DHT22;31763;48.180;7.904;2022-12-18T09:11:12;-7.60;99.90
46029;DHT22;31763;48.180;7.904;2022-12-18T09:13:40;-7.40;99.90
46029;DHT22;31763;48.180;7.904;2022-12-18T09:16:07;-7.30;99.90
46029;DHT22;31763;48.180;7.904;2022-12-18T09:18:34;-7.00;99.90
46029;DHT22;31763;48.180;7.904;2022-12-18T09:21:07;-6.80;99.90
46029;DHT22;31763;48.180;7.904;2022-12-18T09:23:37;-6.60;99.90
46029;DHT22;31763;48.180;7.904;2022-12-18T09:26:03;-6.40;99.90
46029;DHT22;31763;48.180;7.904;2022-12-18T09:28:30;-6.50;99.90
46029;DHT22;31763;48.180;7.904;2022-12-18T09:30:57;-6.40;99.90
46029;DHT22;31763;48.180;7.904;2022-12-18T09:33:24;-6.40;99.90
46029;DHT22;31763;48.180;7.904;2022-12-18T09:35:51;-6.30;99.90
46029;DHT22;31763;48.180;7.904;2022-12-18T09:38:19;-6.30;99.90
46029;DHT22;31763;48.180;7.904;2022-12-18T09:43:18;-6.10;99.90
46029;DHT22;31763;48.180;7.904;2022-12-18T09:45:47;-6.00;99.90
46029;DHT22;31763;48.180;7.904;2022-12-18T09:48:26;-6.00;99.90
46029;DHT22;31763;48.180;7.904;2022-12-18T09:50:57;-5.90;99.90
46029;DHT22;31763;48.180;7.904;2022-12-18T09:53:35;-5.90;99.90
46029;DHT22;31763;48.180;7.904;2022-12-18T09:56:04;-6.00;99.90
46029;DHT22;31763;48.180;7.904;2022-12-18T09:58:31;-6.00;99.90
46029;DHT22;31763;48.180;7.904;2022-12-18T10:01:07;-6.10;99.90
46029;DHT22;31763;48.180;7.904;2022-12-18T10:03:37;-6.10;99.90
46029;DHT22;31763;48.180;7.904;2022-12-18T10:09:07;-5.80;99.90
46029;DHT22;31763;48.180;7.904;2022-12-18T10:14:27;-5.60;99.90
46029;DHT22;31763;48.180;7.904;2022-12-18T10:20:13;-5.30;99.90
46029;DHT22;31763;48.180;7.904;2022-12-18T10:22:50;-5.50;99.90
46029;DHT22;31763;48.180;7.904;2022-12-18T10:25:34;-5.50;99.90
46029;DHT22;31763;48.180;7.904;2022-12-18T10:28:15;-5.30;99.90
46029;DHT22;31763;48.180;7.904;2022-12-18T10:30:43;-5.10;99.90
46029;DHT22;31763;48.180;7.904;2022-12-18T10:33:17;-4.80;99.90
46029;DHT22;31763;48.180;7.904;2022-12-18T10:35:49;-4.70;99.90
46029;DHT22;31763;48.180;7.904;2022-12-18T10:43:28;-4.60;99.90
46029;DHT22;31763;48.180;7.904;2022-12-18T10:48:36;-4.30;99.90
46029;DHT22;31763;48.180;7.904;2022-12-18T10:51:07;-3.90;99.90
46029;DHT22;31763;48.180;7.904;2022-12-18T10:53:38;-3.50;99.90
46029;DHT22;31763;48.180;7.904;2022-12-18T10:56:06;-3.20;99.90
46029;DHT22;31763;48.180;7.904;2022-12-18T10:58:34;-2.90;99.90
46029;DHT22;31763;48.180;7.904;2022-12-18T11:06:14;-2.20;99.90
46029;DHT22;31763;48.180;7.904;2022-12-18T11:08:42;-2.10;99.90
46029;DHT22;31763;48.180;7.904;2022-12-18T11:11:21;-1.90;99.90
46029;DHT22;31763;48.180;7.904;2022-12-18T11:13:57;-1.80;99.90
46029;DHT22;31763;48.180;7.904;2022-12-18T11:16:25;-1.80;99.90
46029;DHT22;31763;48.180;7.904;2022-12-18T11:18:53;-1.70;99.90
46029;DHT22;31763;48.180;7.904;2022-12-18T11:21:20;-1.90;99.90
46029;DHT22;31763;48.180;7.904;2022-12-18T11:23:50;-2.10;99.90
46029;DHT22;31763;48.180;7.904;2022-12-18T11:26:18;-2.10;99.90
46029;DHT22;31763;48.180;7.904;2022-12-18T11:28:47;-2.20;99.90
46029;DHT22;31763;48.180;7.904;2022-12-18T11:31:27;-2.10;99.90
46029;DHT22;31763;48.180;7.904;2022-12-18T11:36:48;-1.80;99.90
46029;DHT22;31763;48.180;7.904;2022-12-18T11:39:17;-1.50;99.90
46029;DHT22;31763;48.180;7.904;2022-12-18T11:41:59;-1.60;99.90
46029;DHT22;31763;48.180;7.904;2022-12-18T11:47:39;-1.40;99.90
46029;DHT22;31763;48.180;7.904;2022-12-18T11:51:12;-1.70;99.90
46029;DHT22;31763;48.180;7.904;2022-12-18T11:53:16;-1.90;99.90
46029;DHT22;31763;48.180;7.904;2022-12-18T11:55:52;-1.50;99.90
46029;DHT22;31763;48.180;7.904;2022-12-18T12:08:43;-1.90;99.90
46029;DHT22;31763;48.180;7.904;2022-12-18T12:19:43;-2.50;99.90
46029;DHT22;31763;48.180;7.904;2022-12-18T12:36:36;-2.30;99.90
46029;DHT22;31763;48.180;7.904;2022-12-18T12:39:28;-2.30;99.90
46029;DHT22;31763;48.180;7.904;2022-12-18T12:42:01;-2.20;99.90
46029;DHT22;31763;48.180;7.904;2022-12-18T12:44:53;-2.30;99.90
46029;DHT22;31763;48.180;7.904;2022-12-18T12:47:31;-2.40;99.90
46029;DHT22;31763;48.180;7.904;2022-12-18T12:50:03;-2.40;99.90
46029;DHT22;31763;48.180;7.904;2022-12-18T12:52:34;-2.60;99.90
46029;DHT22;31763;48.180;7.904;2022-12-18T12:55:04;-2.70;99.90
46029;DHT22;31763;48.180;7.904;2022-12-18T12:57:40;-2.80;99.90
46029;DHT22;31763;48.180;7.904;2022-12-18T13:00:11;-2.60;99.90
46029;DHT22;31763;48.180;7.904;2022-12-18T13:03:01;-2.40;99.90
46029;DHT22;31763;48.180;7.904;2022-12-18T13:05:54;-2.20;99.90
46029;DHT22;31763;48.180;7.904;2022-12-18T13:08:25;-2.50;99.90
46029;DHT22;31763;48.180;7.904;2022-12-18T13:11:00;-2.40;99.90
46029;DHT22;31763;48.180;7.904;2022-12-18T13:16:19;-2.30;99.90
46029;DHT22;31763;48.180;7.904;2022-12-18T13:18:55;-2.60;99.90
46029;DHT22;31763;48.180;7.904;2022-12-18T13:23:55;-2.60;99.90
46029;DHT22;31763;48.180;7.904;2022-12-18T13:28:56;-2.40;99.90
46029;DHT22;31763;48.180;7.904;2022-12-18T13:36:55;-2.20;99.90
46029;DHT22;31763;48.180;7.904;2022-12-18T13:39:32;-2.10;99.90
46029;DHT22;31763;48.180;7.904;2022-12-18T13:44:32;-2.20;99.90
46029;DHT22;31763;48.180;7.904;2022-12-18T13:47:40;-2.60;99.90
46029;DHT22;31763;48.180;7.904;2022-12-18T13:50:20;-2.70;99.90
46029;DHT22;31763;48.180;7.904;2022-12-18T13:52:49;-2.60;99.90
46029;DHT22;31763;48.180;7.904;2022-12-18T13:55:18;-2.70;99.90
46029;DHT22;31763;48.180;7.904;2022-12-18T13:57:45;-2.50;99.90
46029;DHT22;31763;48.180;7.904;2022-12-18T14:02:49;-2.40;99.90
46029;DHT22;31763;48.180;7.904;2022-12-18T14:07:54;-2.70;99.90
46029;DHT22;31763;48.180;7.904;2022-12-18T14:10:22;-2.50;99.90
46029;DHT22;31763;48.180;7.904;2022-12-18T14:13:09;-2.60;99.90
46029;DHT22;31763;48.180;7.904;2022-12-18T14:15:41;-2.60;99.90
46029;DHT22;31763;48.180;7.904;2022-12-18T14:18:26;-2.50;99.90
46029;DHT22;31763;48.180;7.904;2022-12-18T14:21:04;-2.50;99.90
46029;DHT22;31763;48.180;7.904;2022-12-18T14:23:39;-2.40;99.90
46029;DHT22;31763;48.180;7.904;2022-12-18T14:28:55;-2.50;99.90
46029;DHT22;31763;48.180;7.904;2022-12-18T14:31:24;-2.60;99.90
46029;DHT22;31763;48.180;7.904;2022-12-18T14:33:52;-2.50;99.90
46029;DHT22;31763;48.180;7.904;2022-12-18T14:36:20;-2.60;99.90
46029;DHT22;31763;48.180;7.904;2022-12-18T14:38:52;-2.70;99.90
46029;DHT22;31763;48.180;7.904;2022-12-18T14:41:24;-2.70;99.90
46029;DHT22;31763;48.180;7.904;2022-12-18T14:43:52;-2.70;99.90
46029;DHT22;31763;48.180;7.904;2022-12-18T14:46:34;-2.70;99.90
46029;DHT22;31763;48.180;7.904;2022-12-18T14:49:45;-2.80;99.90
46029;DHT22;31763;48.180;7.904;2022-12-18T14:51:54;-3.10;99.90
46029;DHT22;31763;48.180;7.904;2022-12-18T14:54:45;-3.20;99.90
46029;DHT22;31763;48.180;7.904;2022-12-18T14:59:39;-3.20;99.90
46029;DHT22;31763;48.180;7.904;2022-12-18T15:04:46;-3.40;99.90
46029;DHT22;31763;48.180;7.904;2022-12-18T15:25:53;-3.50;99.90
46029;DHT22;31763;48.180;7.904;2022-12-18T15:28:34;-3.50;99.90
46029;DHT22;31763;48.180;7.904;2022-12-18T15:33:41;-3.60;99.90
46029;DHT22;31763;48.180;7.904;2022-12-18T15:36:11;-3.50;99.90
46029;DHT22;31763;48.180;7.904;2022-12-18T15:38:39;-3.50;99.90
46029;DHT22;31763;48.180;7.904;2022-12-18T15:41:05;-3.50;99.90
46029;DHT22;31763;48.180;7.904;2022-12-18T15:43:40;-3.60;99.90
46029;DHT22;31763;48.180;7.904;2022-12-18T15:46:23;-3.40;99.90
46029;DHT22;31763;48.180;7.904;2022-12-18T15:48:51;-3.30;99.90
46029;DHT22;31763;48.180;7.904;2022-12-18T15:51:34;-3.30;99.90
46029;DHT22;31763;48.180;7.904;2022-12-18T15:54:02;-3.20;99.90
46029;DHT22;31763;48.180;7.904;2022-12-18T15:56:31;-3.20;99.90
46029;DHT22;31763;48.180;7.904;2022-12-18T15:59:17;-3.20;99.90
46029;DHT22;31763;48.180;7.904;2022-12-18T16:01:45;-3.20;99.90
46029;DHT22;31763;48.180;7.904;2022-12-18T16:04:14;-3.20;99.90
46029;DHT22;31763;48.180;7.904;2022-12-18T16:06:42;-3.10;99.90
46029;DHT22;31763;48.180;7.904;2022-12-18T16:09:29;-3.10;99.90
46029;DHT22;31763;48.180;7.904;2022-12-18T16:11:56;-3.40;99.90
46029;DHT22;31763;48.180;7.904;2022-12-18T16:14:23;-3.30;99.90
46029;DHT22;31763;48.180;7.904;2022-12-18T16:16:58;-3.30;99.90
46029;DHT22;31763;48.180;7.904;2022-12-18T16:19:26;-3.30;99.90
46029;DHT22;31763;48.180;7.904;2022-12-18T16:21:54;-3.40;99.90
46029;DHT22;31763;48.180;7.904;2022-12-18T16:24:23;-3.30;99.90
46029;DHT22;31763;48.180;7.904;2022-12-18T16:26:51;-3.20;99.90
46029;DHT22;31763;48.180;7.904;2022-12-18T16:29:19;-3.20;99.90
46029;DHT22;31763;48.180;7.904;2022-12-18T16:31:51;-3.10;99.90
46029;DHT22;31763;48.180;7.904;2022-12-18T16:34:21;-3.10;99.90
46029;DHT22;31763;48.180;7.904;2022-12-18T16:36:55;-3.10;99.90
46029;DHT22;31763;48.180;7.904;2022-12-18T16:39:31;-3.10;99.90
46029;DHT22;31763;48.180;7.904;2022-12-18T16:42:05;-3.10;99.90
46029;DHT22;31763;48.180;7.904;2022-12-18T16:44:34;-3.10;99.90
46029;DHT22;31763;48.180;7.904;2022-12-18T16:47:02;-3.10;99.90
46029;DHT22;31763;48.180;7.904;2022-12-18T16:49:30;-3.00;99.90
46029;DHT22;31763;48.180;7.904;2022-12-18T16:51:57;-3.00;99.90
46029;DHT22;31763;48.180;7.904;2022-12-18T16:54:24;-3.00;99.90
46029;DHT22;31763;48.180;7.904;2022-12-18T16:56:50;-3.00;99.90
46029;DHT22;31763;48.180;7.904;2022-12-18T16:59:17;-2.90;99.90
46029;DHT22;31763;48.180;7.904;2022-12-18T17:01:45;-3.00;99.90
46029;DHT22;31763;48.180;7.904;2022-12-18T17:04:12;-3.00;99.90
46029;DHT22;31763;48.180;7.904;2022-12-18T17:06:41;-3.00;99.90
46029;DHT22;31763;48.180;7.904;2022-12-18T17:09:13;-3.00;99.90
46029;DHT22;31763;48.180;7.904;2022-12-18T17:11:41;-2.90;99.90
46029;DHT22;31763;48.180;7.904;2022-12-18T17:14:09;-3.00;99.90
46029;DHT22;31763;48.180;7.904;2022-12-18T17:16:38;-3.00;99.90
46029;DHT22;31763;48.180;7.904;2022-12-18T17:19:05;-2.90;99.90
46029;DHT22;31763;48.180;7.904;2022-12-18T17:21:39;-2.90;99.90
46029;DHT22;31763;48.180;7.904;2022-12-18T17:24:06;-2.80;99.90
46029;DHT22;31763;48.180;7.904;2022-12-18T17:26:33;-2.70;99.90
46029;DHT22;31763;48.180;7.904;2022-12-18T17:28:59;-2.80;99.90
46029;DHT22;31763;48.180;7.904;2022-12-18T17:31:27;-2.80;99.90
46029;DHT22;31763;48.180;7.904;2022-12-18T17:33:55;-2.70;99.90
46029;DHT22;31763;48.180;7.904;2022-12-18T17:36:23;-2.70;99.90
46029;DHT22;31763;48.180;7.904;2022-12-18T17:38:57;-2.70;99.90
46029;DHT22;31763;48.180;7.904;2022-12-18T17:41:25;-2.70;99.90
46029;DHT22;31763;48.180;7.904;2022-12-18T17:43:53;-2.70;99.90
46029;DHT22;31763;48.180;7.904;2022-12-18T17:46:21;-2.80;99.90
46029;DHT22;31763;48.180;7.904;2022-12-18T17:48:48;-2.90;99.90
46029;DHT22;31763;48.180;7.904;2022-12-18T17:51:14;-3.30;99.90
46029;DHT22;31763;48.180;7.904;2022-12-18T17:53:42;-3.50;99.90
46029;DHT22;31763;48.180;7.904;2022-12-18T17:56:11;-3.50;99.90
46029;DHT22;31763;48.180;7.904;2022-12-18T17:58:39;-3.50;99.90
46029;DHT22;31763;48.180;7.904;2022-12-18T18:01:06;-3.40;99.90
46029;DHT22;31763;48.180;7.904;2022-12-18T18:03:34;-3.30;99.90
46029;DHT22;31763;48.180;7.904;2022-12-18T18:06:03;-3.20;99.90
46029;DHT22;31763;48.180;7.904;2022-12-18T18:08:30;-3.20;99.90
46029;DHT22;31763;48.180;7.904;2022-12-18T18:10:57;-3.10;99.90
46029;DHT22;31763;48.180;7.904;2022-12-18T18:13:47;-3.10;99.90